Accueil
METAR-TAF:

METAR-TAF

Aéroports :

Wasilla, Alaska, États-Unis

latitude: 61-34-19N, longitude: 149-32-26W, altitude: 106 m

Observation

Le bulletin a été fait il y a 31 minutes, à 23:56 UTC
Vent 3 kt de sud-ouest
Température -9°C
Humidité 85%
Pression 1006 hPa
Visibilité: 9.7 km
Ciel couvert à une hauteur de 1600 ft
neige faible, brume

METAR: PAWS 222356Z AUTO 22003KT 6SM -SN BR OVC016 M09/M11 A2970 RMK AO2 SLP067 P0000 60001 T10891111 11083 21100 50002 FZRANO

Heure: 15:27 (00:27 UTC)


TAF: absent

Observations et prévisions météorologiques de plus de 4000 aéroports (messages METAR et TAF).

Les stations disponibles sont représentées par des disques jaunes et rouges sur la carte.

Passer la souris dessus pour voir le nom de la station.

Cliquer dessus pour voir les observations et prévisions météorologiques.

Pour changer de carte: cliquez sur les boutons verts avec une croix noire pour zoomer, sur le bouton vert avec un tiret pour effectuer un zoom arrière, ou sur les flèches vertes pour les cartes adjacentes.


METAR-TAF: